sensor_id;sensor_type;location;lat;lon;timestamp;P1;durP1;ratioP1;P2;durP2;ratioP2
11131;SDS011;5620;53.570;9.718;2023-02-11T00:01:46;11.97;;;5.80;;
11131;SDS011;5620;53.570;9.718;2023-02-11T00:04:13;19.50;;;8.90;;
11131;SDS011;5620;53.570;9.718;2023-02-11T00:06:41;23.17;;;9.73;;
11131;SDS011;5620;53.570;9.718;2023-02-11T00:09:08;23.40;;;11.80;;
11131;SDS011;5620;53.570;9.718;2023-02-11T00:11:36;15.05;;;9.32;;
11131;SDS011;5620;53.570;9.718;2023-02-11T00:14:03;18.20;;;10.00;;
11131;SDS011;5620;53.570;9.718;2023-02-11T00:16:32;13.05;;;9.00;;
11131;SDS011;5620;53.570;9.718;2023-02-11T00:19:01;16.30;;;8.50;;
11131;SDS011;5620;53.570;9.718;2023-02-11T00:21:29;27.55;;;9.55;;
11131;SDS011;5620;53.570;9.718;2023-02-11T00:23:57;15.75;;;9.40;;
11131;SDS011;5620;53.570;9.718;2023-02-11T00:26:25;19.60;;;8.93;;
11131;SDS011;5620;53.570;9.718;2023-02-11T00:28:57;20.05;;;9.10;;
11131;SDS011;5620;53.570;9.718;2023-02-11T00:31:28;21.67;;;9.88;;
11131;SDS011;5620;53.570;9.718;2023-02-11T00:33:53;23.90;;;10.93;;
11131;SDS011;5620;53.570;9.718;2023-02-11T00:36:23;16.73;;;10.20;;
11131;SDS011;5620;53.570;9.718;2023-02-11T00:38:50;20.67;;;7.65;;
11131;SDS011;5620;53.570;9.718;2023-02-11T00:41:20;16.77;;;8.32;;
11131;SDS011;5620;53.570;9.718;2023-02-11T00:43:49;21.50;;;9.35;;
11131;SDS011;5620;53.570;9.718;2023-02-11T00:46:18;23.88;;;8.98;;
11131;SDS011;5620;53.570;9.718;2023-02-11T00:48:47;19.48;;;9.13;;
11131;SDS011;5620;53.570;9.718;2023-02-11T00:51:14;26.58;;;10.52;;
11131;SDS011;5620;53.570;9.718;2023-02-11T00:53:40;17.45;;;9.38;;
11131;SDS011;5620;53.570;9.718;2023-02-11T00:56:05;20.73;;;10.83;;
11131;SDS011;5620;53.570;9.718;2023-02-11T00:58:32;28.75;;;10.00;;
11131;SDS011;5620;53.570;9.718;2023-02-11T01:00:59;11.52;;;8.32;;
11131;SDS011;5620;53.570;9.718;2023-02-11T01:03:26;11.95;;;6.88;;
11131;SDS011;5620;53.570;9.718;2023-02-11T01:05:52;15.43;;;8.23;;
11131;SDS011;5620;53.570;9.718;2023-02-11T01:08:20;19.55;;;8.45;;
11131;SDS011;5620;53.570;9.718;2023-02-11T01:10:54;24.45;;;9.52;;
11131;SDS011;5620;53.570;9.718;2023-02-11T01:13:39;13.10;;;8.05;;
11131;SDS011;5620;53.570;9.718;2023-02-11T01:16:08;19.27;;;9.47;;
11131;SDS011;5620;53.570;9.718;2023-02-11T01:18:37;18.65;;;9.35;;
11131;SDS011;5620;53.570;9.718;2023-02-11T01:21:05;22.67;;;11.15;;
11131;SDS011;5620;53.570;9.718;2023-02-11T01:23:31;22.38;;;7.78;;
11131;SDS011;5620;53.570;9.718;2023-02-11T01:25:59;24.58;;;10.05;;
11131;SDS011;5620;53.570;9.718;2023-02-11T01:28:26;26.57;;;9.10;;
11131;SDS011;5620;53.570;9.718;2023-02-11T01:30:53;12.15;;;6.65;;
11131;SDS011;5620;53.570;9.718;2023-02-11T01:33:22;22.00;;;11.30;;
11131;SDS011;5620;53.570;9.718;2023-02-11T01:35:47;20.13;;;10.30;;
11131;SDS011;5620;53.570;9.718;2023-02-11T01:38:18;17.33;;;8.60;;
11131;SDS011;5620;53.570;9.718;2023-02-11T01:40:49;19.97;;;9.43;;
11131;SDS011;5620;53.570;9.718;2023-02-11T01:43:21;21.38;;;9.80;;
11131;SDS011;5620;53.570;9.718;2023-02-11T01:45:53;21.00;;;10.35;;
11131;SDS011;5620;53.570;9.718;2023-02-11T01:48:31;19.27;;;8.40;;
11131;SDS011;5620;53.570;9.718;2023-02-11T01:51:06;18.33;;;8.60;;
11131;SDS011;5620;53.570;9.718;2023-02-11T01:53:39;20.43;;;10.27;;
11131;SDS011;5620;53.570;9.718;2023-02-11T01:56:27;20.10;;;9.65;;
11131;SDS011;5620;53.570;9.718;2023-02-11T01:59:02;16.65;;;9.38;;
11131;SDS011;5620;53.570;9.718;2023-02-11T02:01:38;27.02;;;10.55;;
11131;SDS011;5620;53.570;9.718;2023-02-11T02:04:12;12.25;;;7.43;;
11131;SDS011;5620;53.570;9.718;2023-02-11T02:06:49;13.67;;;7.37;;
11131;SDS011;5620;53.570;9.718;2023-02-11T02:09:22;14.48;;;9.07;;
11131;SDS011;5620;53.570;9.718;2023-02-11T02:12:00;17.77;;;8.55;;
11131;SDS011;5620;53.570;9.718;2023-02-11T02:14:31;26.02;;;12.90;;
11131;SDS011;5620;53.570;9.718;2023-02-11T02:16:56;17.48;;;8.60;;
11131;SDS011;5620;53.570;9.718;2023-02-11T02:39:43;23.67;;;9.90;;
11131;SDS011;5620;53.570;9.718;2023-02-11T02:42:12;20.10;;;10.25;;
11131;SDS011;5620;53.570;9.718;2023-02-11T02:44:46;8.88;;;6.55;;
11131;SDS011;5620;53.570;9.718;2023-02-11T02:47:15;17.58;;;8.27;;
11131;SDS011;5620;53.570;9.718;2023-02-11T02:49:42;12.80;;;7.28;;
11131;SDS011;5620;53.570;9.718;2023-02-11T03:04:08;12.85;;;6.75;;
11131;SDS011;5620;53.570;9.718;2023-02-11T03:07:07;21.58;;;7.85;;
11131;SDS011;5620;53.570;9.718;2023-02-11T03:12:43;13.83;;;6.43;;
11131;SDS011;5620;53.570;9.718;2023-02-11T03:15:11;19.90;;;6.85;;
11131;SDS011;5620;53.570;9.718;2023-02-11T03:17:40;10.75;;;6.05;;
11131;SDS011;5620;53.570;9.718;2023-02-11T03:20:12;17.27;;;8.18;;
11131;SDS011;5620;53.570;9.718;2023-02-11T03:23:05;6.75;;;5.80;;
11131;SDS011;5620;53.570;9.718;2023-02-11T03:25:34;17.60;;;7.10;;
11131;SDS011;5620;53.570;9.718;2023-02-11T03:28:16;10.98;;;5.72;;
11131;SDS011;5620;53.570;9.718;2023-02-11T03:36:43;13.70;;;6.93;;
11131;SDS011;5620;53.570;9.718;2023-02-11T03:39:26;9.68;;;6.82;;
11131;SDS011;5620;53.570;9.718;2023-02-11T03:42:05;16.70;;;8.43;;
11131;SDS011;5620;53.570;9.718;2023-02-11T03:44:36;12.57;;;5.40;;
11131;SDS011;5620;53.570;9.718;2023-02-11T03:47:16;12.95;;;6.90;;
11131;SDS011;5620;53.570;9.718;2023-02-11T03:49:46;12.35;;;5.25;;
11131;SDS011;5620;53.570;9.718;2023-02-11T03:52:17;12.80;;;7.05;;
11131;SDS011;5620;53.570;9.718;2023-02-11T03:54:46;25.15;;;7.30;;
11131;SDS011;5620;53.570;9.718;2023-02-11T03:57:18;7.28;;;4.43;;
11131;SDS011;5620;53.570;9.718;2023-02-11T04:02:33;13.80;;;6.47;;
11131;SDS011;5620;53.570;9.718;2023-02-11T04:05:03;10.32;;;6.22;;
11131;SDS011;5620;53.570;9.718;2023-02-11T04:07:35;12.32;;;4.15;;
11131;SDS011;5620;53.570;9.718;2023-02-11T04:10:00;22.63;;;7.72;;
11131;SDS011;5620;53.570;9.718;2023-02-11T04:12:32;14.87;;;7.07;;
11131;SDS011;5620;53.570;9.718;2023-02-11T04:14:57;11.32;;;6.85;;
11131;SDS011;5620;53.570;9.718;2023-02-11T04:17:26;12.60;;;5.38;;
11131;SDS011;5620;53.570;9.718;2023-02-11T04:19:53;25.73;;;7.07;;
11131;SDS011;5620;53.570;9.718;2023-02-11T04:22:19;9.02;;;4.82;;
11131;SDS011;5620;53.570;9.718;2023-02-11T04:24:47;13.18;;;6.43;;
11131;SDS011;5620;53.570;9.718;2023-02-11T04:27:14;6.47;;;5.63;;
11131;SDS011;5620;53.570;9.718;2023-02-11T04:29:40;14.10;;;6.00;;
11131;SDS011;5620;53.570;9.718;2023-02-11T04:32:09;23.17;;;6.25;;
11131;SDS011;5620;53.570;9.718;2023-02-11T04:34:37;10.27;;;6.10;;
11131;SDS011;5620;53.570;9.718;2023-02-11T04:37:04;11.50;;;5.78;;
11131;SDS011;5620;53.570;9.718;2023-02-11T04:39:31;16.30;;;6.63;;
11131;SDS011;5620;53.570;9.718;2023-02-11T04:41:59;17.00;;;7.35;;
11131;SDS011;5620;53.570;9.718;2023-02-11T04:44:26;16.30;;;6.75;;
11131;SDS011;5620;53.570;9.718;2023-02-11T04:46:53;12.20;;;5.07;;
11131;SDS011;5620;53.570;9.718;2023-02-11T04:49:20;16.27;;;6.43;;
11131;SDS011;5620;53.570;9.718;2023-02-11T04:51:47;10.23;;;4.68;;
11131;SDS011;5620;53.570;9.718;2023-02-11T04:54:14;16.63;;;6.85;;
11131;SDS011;5620;53.570;9.718;2023-02-11T04:56:40;11.73;;;5.97;;
11131;SDS011;5620;53.570;9.718;2023-02-11T04:59:07;8.85;;;5.43;;
11131;SDS011;5620;53.570;9.718;2023-02-11T05:01:34;15.88;;;7.10;;
11131;SDS011;5620;53.570;9.718;2023-02-11T05:04:02;11.50;;;5.68;;
11131;SDS011;5620;53.570;9.718;2023-02-11T05:06:29;8.75;;;4.25;;
11131;SDS011;5620;53.570;9.718;2023-02-11T05:08:55;17.17;;;6.63;;
11131;SDS011;5620;53.570;9.718;2023-02-11T05:11:21;12.73;;;5.93;;
11131;SDS011;5620;53.570;9.718;2023-02-11T05:13:49;19.17;;;6.78;;
11131;SDS011;5620;53.570;9.718;2023-02-11T05:16:16;14.07;;;6.20;;
11131;SDS011;5620;53.570;9.718;2023-02-11T05:18:45;15.80;;;6.57;;
11131;SDS011;5620;53.570;9.718;2023-02-11T05:21:15;17.17;;;7.22;;
11131;SDS011;5620;53.570;9.718;2023-02-11T05:23:45;8.00;;;5.38;;
11131;SDS011;5620;53.570;9.718;2023-02-11T05:26:11;15.70;;;6.03;;
11131;SDS011;5620;53.570;9.718;2023-02-11T05:28:38;12.73;;;6.27;;
11131;SDS011;5620;53.570;9.718;2023-02-11T05:31:07;6.15;;;3.67;;
11131;SDS011;5620;53.570;9.718;2023-02-11T05:33:34;10.30;;;5.85;;
11131;SDS011;5620;53.570;9.718;2023-02-11T05:36:04;9.80;;;5.83;;
11131;SDS011;5620;53.570;9.718;2023-02-11T05:38:34;16.33;;;5.28;;
11131;SDS011;5620;53.570;9.718;2023-02-11T05:41:01;11.68;;;6.63;;
11131;SDS011;5620;53.570;9.718;2023-02-11T05:43:30;13.48;;;5.65;;
11131;SDS011;5620;53.570;9.718;2023-02-11T05:45:58;8.90;;;4.30;;
11131;SDS011;5620;53.570;9.718;2023-02-11T05:48:26;6.17;;;3.53;;
11131;SDS011;5620;53.570;9.718;2023-02-11T05:50:54;12.50;;;5.78;;
11131;SDS011;5620;53.570;9.718;2023-02-11T05:53:22;8.60;;;4.75;;
11131;SDS011;5620;53.570;9.718;2023-02-11T05:55:50;14.27;;;5.10;;
11131;SDS011;5620;53.570;9.718;2023-02-11T05:58:17;14.35;;;5.15;;
11131;SDS011;5620;53.570;9.718;2023-02-11T06:00:44;4.20;;;3.90;;
11131;SDS011;5620;53.570;9.718;2023-02-11T06:03:11;13.15;;;5.60;;
11131;SDS011;5620;53.570;9.718;2023-02-11T06:05:38;3.13;;;2.92;;
11131;SDS011;5620;53.570;9.718;2023-02-11T06:08:05;10.35;;;5.57;;
11131;SDS011;5620;53.570;9.718;2023-02-11T06:10:31;8.73;;;3.03;;
11131;SDS011;5620;53.570;9.718;2023-02-11T06:12:58;8.38;;;5.30;;
11131;SDS011;5620;53.570;9.718;2023-02-11T06:15:27;7.63;;;4.05;;
11131;SDS011;5620;53.570;9.718;2023-02-11T06:17:55;5.40;;;3.47;;
11131;SDS011;5620;53.570;9.718;2023-02-11T06:20:26;5.65;;;3.38;;
11131;SDS011;5620;53.570;9.718;2023-02-11T06:22:52;5.05;;;3.85;;
11131;SDS011;5620;53.570;9.718;2023-02-11T06:25:18;6.17;;;4.10;;
11131;SDS011;5620;53.570;9.718;2023-02-11T06:27:47;7.05;;;5.07;;
11131;SDS011;5620;53.570;9.718;2023-02-11T06:30:15;7.35;;;5.30;;
11131;SDS011;5620;53.570;9.718;2023-02-11T06:32:43;10.75;;;4.70;;
11131;SDS011;5620;53.570;9.718;2023-02-11T06:35:08;7.65;;;5.07;;
11131;SDS011;5620;53.570;9.718;2023-02-11T06:37:37;7.50;;;4.73;;
11131;SDS011;5620;53.570;9.718;2023-02-11T06:40:03;9.43;;;5.55;;
11131;SDS011;5620;53.570;9.718;2023-02-11T06:42:31;13.57;;;5.70;;
11131;SDS011;5620;53.570;9.718;2023-02-11T06:45:09;8.98;;;4.63;;
11131;SDS011;5620;53.570;9.718;2023-02-11T06:47:37;6.75;;;4.25;;
11131;SDS011;5620;53.570;9.718;2023-02-11T06:50:06;5.67;;;5.17;;
11131;SDS011;5620;53.570;9.718;2023-02-11T06:52:34;6.28;;;4.15;;
11131;SDS011;5620;53.570;9.718;2023-02-11T06:55:00;7.90;;;5.25;;
11131;SDS011;5620;53.570;9.718;2023-02-11T06:57:29;7.95;;;4.70;;
11131;SDS011;5620;53.570;9.718;2023-02-11T06:59:56;9.35;;;5.85;;
11131;SDS011;5620;53.570;9.718;2023-02-11T07:02:24;4.20;;;3.80;;
11131;SDS011;5620;53.570;9.718;2023-02-11T07:04:50;6.20;;;5.20;;
11131;SDS011;5620;53.570;9.718;2023-02-11T07:07:15;7.87;;;5.07;;
11131;SDS011;5620;53.570;9.718;2023-02-11T07:09:43;8.82;;;4.72;;
11131;SDS011;5620;53.570;9.718;2023-02-11T07:12:11;8.02;;;6.05;;
11131;SDS011;5620;53.570;9.718;2023-02-11T07:14:39;6.67;;;5.10;;
11131;SDS011;5620;53.570;9.718;2023-02-11T07:17:06;5.65;;;4.55;;
11131;SDS011;5620;53.570;9.718;2023-02-11T07:19:33;8.07;;;5.07;;
11131;SDS011;5620;53.570;9.718;2023-02-11T07:22:02;12.57;;;7.45;;
11131;SDS011;5620;53.570;9.718;2023-02-11T07:24:29;7.00;;;4.85;;
11131;SDS011;5620;53.570;9.718;2023-02-11T07:26:55;5.25;;;4.47;;
11131;SDS011;5620;53.570;9.718;2023-02-11T07:29:23;6.47;;;5.63;;
11131;SDS011;5620;53.570;9.718;2023-02-11T07:31:50;10.45;;;5.70;;
11131;SDS011;5620;53.570;9.718;2023-02-11T07:34:17;14.05;;;5.53;;
11131;SDS011;5620;53.570;9.718;2023-02-11T07:36:48;13.90;;;7.10;;
11131;SDS011;5620;53.570;9.718;2023-02-11T07:39:16;14.00;;;5.78;;
11131;SDS011;5620;53.570;9.718;2023-02-11T07:41:43;7.47;;;4.75;;
11131;SDS011;5620;53.570;9.718;2023-02-11T07:44:11;9.45;;;6.13;;
11131;SDS011;5620;53.570;9.718;2023-02-11T07:46:39;17.58;;;7.05;;
11131;SDS011;5620;53.570;9.718;2023-02-11T07:49:06;7.97;;;5.82;;
11131;SDS011;5620;53.570;9.718;2023-02-11T07:51:32;6.20;;;5.60;;
11131;SDS011;5620;53.570;9.718;2023-02-11T07:53:58;14.60;;;5.22;;
11131;SDS011;5620;53.570;9.718;2023-02-11T07:56:27;13.88;;;8.07;;
11131;SDS011;5620;53.570;9.718;2023-02-11T07:58:55;7.07;;;5.40;;
11131;SDS011;5620;53.570;9.718;2023-02-11T08:01:24;14.07;;;7.18;;
11131;SDS011;5620;53.570;9.718;2023-02-11T08:03:51;14.52;;;6.93;;
11131;SDS011;5620;53.570;9.718;2023-02-11T08:06:19;12.95;;;6.32;;
11131;SDS011;5620;53.570;9.718;2023-02-11T08:08:48;8.07;;;5.78;;
11131;SDS011;5620;53.570;9.718;2023-02-11T08:11:23;10.83;;;6.60;;
11131;SDS011;5620;53.570;9.718;2023-02-11T08:13:50;9.48;;;5.78;;
11131;SDS011;5620;53.570;9.718;2023-02-11T08:19:11;11.48;;;5.93;;
11131;SDS011;5620;53.570;9.718;2023-02-11T08:21:40;7.25;;;5.68;;
11131;SDS011;5620;53.570;9.718;2023-02-11T08:24:08;10.90;;;6.03;;
11131;SDS011;5620;53.570;9.718;2023-02-11T08:26:36;6.90;;;5.00;;
11131;SDS011;5620;53.570;9.718;2023-02-11T08:29:05;14.20;;;5.75;;
11131;SDS011;5620;53.570;9.718;2023-02-11T08:31:38;6.93;;;4.93;;
11131;SDS011;5620;53.570;9.718;2023-02-11T08:34:06;13.23;;;5.18;;
11131;SDS011;5620;53.570;9.718;2023-02-11T08:36:34;8.97;;;6.20;;
11131;SDS011;5620;53.570;9.718;2023-02-11T08:39:03;12.70;;;7.13;;
11131;SDS011;5620;53.570;9.718;2023-02-11T08:41:38;14.82;;;7.90;;
11131;SDS011;5620;53.570;9.718;2023-02-11T08:44:06;8.90;;;5.63;;
11131;SDS011;5620;53.570;9.718;2023-02-11T08:46:33;14.05;;;8.23;;
11131;SDS011;5620;53.570;9.718;2023-02-11T08:49:00;14.95;;;7.70;;
11131;SDS011;5620;53.570;9.718;2023-02-11T08:51:28;15.63;;;6.05;;
11131;SDS011;5620;53.570;9.718;2023-02-11T08:53:56;6.22;;;4.90;;
11131;SDS011;5620;53.570;9.718;2023-02-11T08:56:23;15.55;;;7.68;;
11131;SDS011;5620;53.570;9.718;2023-02-11T08:58:52;8.70;;;6.18;;
11131;SDS011;5620;53.570;9.718;2023-02-11T09:01:23;10.00;;;6.30;;
11131;SDS011;5620;53.570;9.718;2023-02-11T09:03:55;10.55;;;6.68;;
11131;SDS011;5620;53.570;9.718;2023-02-11T09:06:24;11.32;;;5.30;;
11131;SDS011;5620;53.570;9.718;2023-02-11T09:09:13;13.57;;;6.35;;
11131;SDS011;5620;53.570;9.718;2023-02-11T09:11:53;7.88;;;5.03;;
11131;SDS011;5620;53.570;9.718;2023-02-11T09:14:21;12.10;;;6.25;;
11131;SDS011;5620;53.570;9.718;2023-02-11T09:16:49;11.02;;;5.50;;
11131;SDS011;5620;53.570;9.718;2023-02-11T09:19:18;7.35;;;5.45;;
11131;SDS011;5620;53.570;9.718;2023-02-11T09:21:45;16.23;;;5.57;;
11131;SDS011;5620;53.570;9.718;2023-02-11T09:24:12;14.65;;;7.55;;
11131;SDS011;5620;53.570;9.718;2023-02-11T09:26:41;28.25;;;13.27;;
11131;SDS011;5620;53.570;9.718;2023-02-11T09:29:12;10.25;;;5.05;;
11131;SDS011;5620;53.570;9.718;2023-02-11T09:31:40;10.60;;;5.40;;
11131;SDS011;5620;53.570;9.718;2023-02-11T09:34:09;24.30;;;6.15;;
11131;SDS011;5620;53.570;9.718;2023-02-11T09:36:36;16.70;;;6.43;;
11131;SDS011;5620;53.570;9.718;2023-02-11T09:39:08;9.57;;;5.18;;
11131;SDS011;5620;53.570;9.718;2023-02-11T09:44:24;8.60;;;4.30;;
11131;SDS011;5620;53.570;9.718;2023-02-11T09:47:02;11.23;;;4.10;;
11131;SDS011;5620;53.570;9.718;2023-02-11T09:49:49;11.38;;;4.10;;
11131;SDS011;5620;53.570;9.718;2023-02-11T09:55:30;12.85;;;5.60;;
11131;SDS011;5620;53.570;9.718;2023-02-11T09:58:50;11.85;;;4.82;;
11131;SDS011;5620;53.570;9.718;2023-02-11T10:07:01;14.52;;;3.28;;
11131;SDS011;5620;53.570;9.718;2023-02-11T10:13:12;10.57;;;3.80;;
11131;SDS011;5620;53.570;9.718;2023-02-11T10:19:08;7.45;;;3.80;;
11131;SDS011;5620;53.570;9.718;2023-02-11T10:24:33;6.82;;;3.28;;
11131;SDS011;5620;53.570;9.718;2023-02-11T10:27:11;10.85;;;3.83;;
11131;SDS011;5620;53.570;9.718;2023-02-11T10:29:49;17.73;;;3.75;;
11131;SDS011;5620;53.570;9.718;2023-02-11T10:35:18;11.27;;;3.40;;
11131;SDS011;5620;53.570;9.718;2023-02-11T10:37:47;13.65;;;4.60;;
11131;SDS011;5620;53.570;9.718;2023-02-11T10:40:14;21.08;;;4.60;;
11131;SDS011;5620;53.570;9.718;2023-02-11T10:42:44;14.05;;;3.38;;
11131;SDS011;5620;53.570;9.718;2023-02-11T10:45:22;5.13;;;2.83;;
11131;SDS011;5620;53.570;9.718;2023-02-11T10:47:55;9.52;;;3.50;;
11131;SDS011;5620;53.570;9.718;2023-02-11T10:50:27;9.30;;;3.90;;
11131;SDS011;5620;53.570;9.718;2023-02-11T10:53:16;15.77;;;4.47;;
11131;SDS011;5620;53.570;9.718;2023-02-11T10:55:53;15.13;;;4.32;;
11131;SDS011;5620;53.570;9.718;2023-02-11T11:01:42;12.82;;;1.83;;
11131;SDS011;5620;53.570;9.718;2023-02-11T11:10:06;13.75;;;3.10;;
11131;SDS011;5620;53.570;9.718;2023-02-11T11:12:52;8.88;;;2.88;;
11131;SDS011;5620;53.570;9.718;2023-02-11T11:15:21;9.10;;;2.88;;
11131;SDS011;5620;53.570;9.718;2023-02-11T11:20:53;6.82;;;3.08;;
11131;SDS011;5620;53.570;9.718;2023-02-11T11:23:24;5.22;;;2.67;;
11131;SDS011;5620;53.570;9.718;2023-02-11T11:26:01;8.73;;;2.20;;
11131;SDS011;5620;53.570;9.718;2023-02-11T11:31:58;11.38;;;2.88;;
11131;SDS011;5620;53.570;9.718;2023-02-11T11:34:34;8.95;;;2.28;;
11131;SDS011;5620;53.570;9.718;2023-02-11T11:37:44;15.55;;;2.50;;
11131;SDS011;5620;53.570;9.718;2023-02-11T11:42:32;9.05;;;3.15;;
11131;SDS011;5620;53.570;9.718;2023-02-11T11:45:05;13.15;;;2.50;;
11131;SDS011;5620;53.570;9.718;2023-02-11T11:51:01;7.20;;;3.13;;
11131;SDS011;5620;53.570;9.718;2023-02-11T11:56:21;6.28;;;1.25;;
11131;SDS011;5620;53.570;9.718;2023-02-11T11:58:59;9.77;;;2.33;;
11131;SDS011;5620;53.570;9.718;2023-02-11T12:01:37;19.48;;;3.55;;
11131;SDS011;5620;53.570;9.718;2023-02-11T12:10:43;4.57;;;1.55;;
11131;SDS011;5620;53.570;9.718;2023-02-11T12:24:48;10.15;;;2.70;;
11131;SDS011;5620;53.570;9.718;2023-02-11T12:42:10;4.07;;;2.30;;
11131;SDS011;5620;53.570;9.718;2023-02-11T12:50:44;6.43;;;2.13;;
11131;SDS011;5620;53.570;9.718;2023-02-11T12:53:53;6.90;;;2.00;;
11131;SDS011;5620;53.570;9.718;2023-02-11T13:05:33;4.22;;;1.75;;
11131;SDS011;5620;53.570;9.718;2023-02-11T13:09:00;7.38;;;1.73;;
11131;SDS011;5620;53.570;9.718;2023-02-11T13:11:08;6.50;;;3.20;;
11131;SDS011;5620;53.570;9.718;2023-02-11T13:13:38;6.05;;;1.23;;
11131;SDS011;5620;53.570;9.718;2023-02-11T13:16:56;9.10;;;1.95;;
11131;SDS011;5620;53.570;9.718;2023-02-11T13:19:30;3.10;;;1.90;;
11131;SDS011;5620;53.570;9.718;2023-02-11T13:22:10;3.53;;;1.40;;
11131;SDS011;5620;53.570;9.718;2023-02-11T13:24:46;7.05;;;2.53;;
11131;SDS011;5620;53.570;9.718;2023-02-11T13:27:53;8.52;;;2.80;;
11131;SDS011;5620;53.570;9.718;2023-02-11T13:30:43;15.73;;;3.55;;
11131;SDS011;5620;53.570;9.718;2023-02-11T13:38:25;13.70;;;3.03;;
11131;SDS011;5620;53.570;9.718;2023-02-11T13:43:43;6.68;;;1.40;;
11131;SDS011;5620;53.570;9.718;2023-02-11T13:46:22;16.40;;;3.28;;
11131;SDS011;5620;53.570;9.718;2023-02-11T13:48:51;16.73;;;3.05;;
11131;SDS011;5620;53.570;9.718;2023-02-11T13:54:04;10.45;;;3.97;;
11131;SDS011;5620;53.570;9.718;2023-02-11T13:56:39;7.68;;;2.90;;
11131;SDS011;5620;53.570;9.718;2023-02-11T14:04:26;18.42;;;2.95;;
11131;SDS011;5620;53.570;9.718;2023-02-11T14:07:38;14.73;;;2.70;;
11131;SDS011;5620;53.570;9.718;2023-02-11T14:09:58;23.83;;;3.95;;
11131;SDS011;5620;53.570;9.718;2023-02-11T14:12:33;12.52;;;3.42;;
11131;SDS011;5620;53.570;9.718;2023-02-11T14:15:21;15.20;;;3.30;;
11131;SDS011;5620;53.570;9.718;2023-02-11T14:17:51;24.63;;;3.30;;
11131;SDS011;5620;53.570;9.718;2023-02-11T14:20:34;21.55;;;3.55;;
11131;SDS011;5620;53.570;9.718;2023-02-11T14:23:05;13.77;;;2.70;;
11131;SDS011;5620;53.570;9.718;2023-02-11T14:25:49;10.77;;;3.35;;
11131;SDS011;5620;53.570;9.718;2023-02-11T14:28:26;8.68;;;2.67;;
11131;SDS011;5620;53.570;9.718;2023-02-11T14:31:06;8.88;;;2.28;;
11131;SDS011;5620;53.570;9.718;2023-02-11T14:41:48;13.65;;;3.63;;
11131;SDS011;5620;53.570;9.718;2023-02-11T14:44:19;12.75;;;3.00;;
11131;SDS011;5620;53.570;9.718;2023-02-11T14:46:49;14.98;;;3.72;;
11131;SDS011;5620;53.570;9.718;2023-02-11T14:49:28;7.97;;;2.47;;
11131;SDS011;5620;53.570;9.718;2023-02-11T14:52:08;17.63;;;3.45;;
11131;SDS011;5620;53.570;9.718;2023-02-11T14:54:48;19.08;;;2.85;;
11131;SDS011;5620;53.570;9.718;2023-02-11T14:57:18;7.70;;;2.72;;
11131;SDS011;5620;53.570;9.718;2023-02-11T14:59:51;12.88;;;3.38;;
11131;SDS011;5620;53.570;9.718;2023-02-11T15:02:34;14.63;;;2.80;;
11131;SDS011;5620;53.570;9.718;2023-02-11T15:05:18;11.23;;;3.00;;
11131;SDS011;5620;53.570;9.718;2023-02-11T15:08:04;16.73;;;4.03;;
11131;SDS011;5620;53.570;9.718;2023-02-11T15:10:42;18.35;;;3.20;;
11131;SDS011;5620;53.570;9.718;2023-02-11T15:13:15;19.92;;;4.57;;
11131;SDS011;5620;53.570;9.718;2023-02-11T15:15:44;21.05;;;4.18;;
11131;SDS011;5620;53.570;9.718;2023-02-11T15:18:16;11.05;;;2.45;;
11131;SDS011;5620;53.570;9.718;2023-02-11T15:20:47;17.30;;;3.10;;
11131;SDS011;5620;53.570;9.718;2023-02-11T15:23:18;19.00;;;3.15;;
11131;SDS011;5620;53.570;9.718;2023-02-11T15:25:51;15.70;;;3.65;;
11131;SDS011;5620;53.570;9.718;2023-02-11T15:28:29;19.75;;;3.45;;
11131;SDS011;5620;53.570;9.718;2023-02-11T15:31:00;18.52;;;3.92;;
11131;SDS011;5620;53.570;9.718;2023-02-11T15:33:37;11.95;;;2.53;;
11131;SDS011;5620;53.570;9.718;2023-02-11T15:36:03;10.73;;;3.10;;
11131;SDS011;5620;53.570;9.718;2023-02-11T15:38:30;9.47;;;2.50;;
11131;SDS011;5620;53.570;9.718;2023-02-11T15:41:01;13.98;;;2.85;;
11131;SDS011;5620;53.570;9.718;2023-02-11T15:43:47;12.45;;;3.42;;
11131;SDS011;5620;53.570;9.718;2023-02-11T15:46:15;17.00;;;2.80;;
11131;SDS011;5620;53.570;9.718;2023-02-11T15:48:53;5.40;;;1.73;;
11131;SDS011;5620;53.570;9.718;2023-02-11T15:51:23;11.70;;;1.90;;
11131;SDS011;5620;53.570;9.718;2023-02-11T15:53:58;7.68;;;2.45;;
11131;SDS011;5620;53.570;9.718;2023-02-11T15:56:34;14.70;;;3.63;;
11131;SDS011;5620;53.570;9.718;2023-02-11T15:59:21;21.30;;;3.53;;
11131;SDS011;5620;53.570;9.718;2023-02-11T16:01:56;5.82;;;1.80;;
11131;SDS011;5620;53.570;9.718;2023-02-11T16:04:50;15.55;;;1.98;;
11131;SDS011;5620;53.570;9.718;2023-02-11T16:18:27;21.38;;;4.35;;
11131;SDS011;5620;53.570;9.718;2023-02-11T16:20:56;13.32;;;2.75;;
11131;SDS011;5620;53.570;9.718;2023-02-11T16:23:34;12.77;;;2.33;;
11131;SDS011;5620;53.570;9.718;2023-02-11T16:26:05;17.15;;;2.97;;
11131;SDS011;5620;53.570;9.718;2023-02-11T16:28:37;12.50;;;2.58;;
11131;SDS011;5620;53.570;9.718;2023-02-11T16:31:04;32.00;;;8.45;;
11131;SDS011;5620;53.570;9.718;2023-02-11T16:33:31;18.63;;;4.45;;
11131;SDS011;5620;53.570;9.718;2023-02-11T16:35:58;32.42;;;12.20;;
11131;SDS011;5620;53.570;9.718;2023-02-11T16:38:26;25.33;;;3.77;;
11131;SDS011;5620;53.570;9.718;2023-02-11T16:40:53;11.50;;;2.47;;
11131;SDS011;5620;53.570;9.718;2023-02-11T16:43:20;7.20;;;2.63;;
11131;SDS011;5620;53.570;9.718;2023-02-11T16:45:46;13.90;;;3.00;;
11131;SDS011;5620;53.570;9.718;2023-02-11T16:48:14;14.68;;;2.75;;
11131;SDS011;5620;53.570;9.718;2023-02-11T16:50:44;26.35;;;3.85;;
11131;SDS011;5620;53.570;9.718;2023-02-11T16:53:21;20.23;;;2.60;;
11131;SDS011;5620;53.570;9.718;2023-02-11T16:55:49;13.95;;;2.67;;
11131;SDS011;5620;53.570;9.718;2023-02-11T16:58:18;11.38;;;2.83;;
11131;SDS011;5620;53.570;9.718;2023-02-11T17:00:44;11.05;;;2.63;;
11131;SDS011;5620;53.570;9.718;2023-02-11T17:03:23;15.70;;;3.78;;
11131;SDS011;5620;53.570;9.718;2023-02-11T17:05:54;9.95;;;3.40;;
11131;SDS011;5620;53.570;9.718;2023-02-11T17:08:19;15.57;;;3.78;;
11131;SDS011;5620;53.570;9.718;2023-02-11T17:10:45;13.77;;;3.90;;
11131;SDS011;5620;53.570;9.718;2023-02-11T17:13:14;15.05;;;3.42;;
11131;SDS011;5620;53.570;9.718;2023-02-11T17:15:39;18.80;;;3.45;;
11131;SDS011;5620;53.570;9.718;2023-02-11T17:18:07;14.43;;;4.30;;
11131;SDS011;5620;53.570;9.718;2023-02-11T17:20:36;20.98;;;4.43;;
11131;SDS011;5620;53.570;9.718;2023-02-11T17:23:03;14.43;;;4.33;;
11131;SDS011;5620;53.570;9.718;2023-02-11T17:25:30;12.32;;;3.08;;
11131;SDS011;5620;53.570;9.718;2023-02-11T17:27:56;20.77;;;3.97;;
11131;SDS011;5620;53.570;9.718;2023-02-11T17:30:22;13.67;;;2.60;;
11131;SDS011;5620;53.570;9.718;2023-02-11T17:32:49;12.00;;;4.35;;
11131;SDS011;5620;53.570;9.718;2023-02-11T17:35:15;17.00;;;4.13;;
11131;SDS011;5620;53.570;9.718;2023-02-11T17:37:42;10.35;;;2.75;;
11131;SDS011;5620;53.570;9.718;2023-02-11T17:40:09;14.30;;;3.28;;
11131;SDS011;5620;53.570;9.718;2023-02-11T17:42:35;11.05;;;2.58;;
11131;SDS011;5620;53.570;9.718;2023-02-11T17:45:00;15.57;;;3.85;;
11131;SDS011;5620;53.570;9.718;2023-02-11T17:47:29;12.67;;;2.47;;
11131;SDS011;5620;53.570;9.718;2023-02-11T17:49:54;13.65;;;3.13;;
11131;SDS011;5620;53.570;9.718;2023-02-11T17:52:23;14.80;;;3.05;;
11131;SDS011;5620;53.570;9.718;2023-02-11T17:54:52;19.05;;;4.00;;
11131;SDS011;5620;53.570;9.718;2023-02-11T17:57:19;13.90;;;3.97;;
11131;SDS011;5620;53.570;9.718;2023-02-11T17:59:46;10.10;;;2.53;;
11131;SDS011;5620;53.570;9.718;2023-02-11T18:02:12;15.73;;;4.22;;
11131;SDS011;5620;53.570;9.718;2023-02-11T18:04:38;16.02;;;3.50;;
11131;SDS011;5620;53.570;9.718;2023-02-11T18:07:05;10.67;;;3.53;;
11131;SDS011;5620;53.570;9.718;2023-02-11T18:09:35;16.25;;;3.58;;
11131;SDS011;5620;53.570;9.718;2023-02-11T18:12:05;8.68;;;3.28;;
11131;SDS011;5620;53.570;9.718;2023-02-11T18:14:33;10.23;;;3.85;;